Time;durP1;ratioP1;P1;durP2;ratioP2;P2;SDS_P1;SDS_P2;PMS_P1;PMS_P2;Temp;Humidity;BMP_temperature;BMP_pressure;BME280_temperature;BME280_humidity;BME280_pressure;Samples;Min_cycle;Max_cycle;Signal;HPM_P1;HPM_P2
2022/08/04 00:01:05;;;;;;;5.67;5.10;;;21.20;99.90;;;;;;6070655;23;20416;-82
2022/08/04 00:03:41;;;;;;;6.50;5.90;;;21.10;99.90;;;;;;6045002;23;20396;-82
2022/08/04 00:06:20;;;;;;;5.53;5.13;;;21.00;99.90;;;;;;6046144;23;20460;-82
2022/08/04 00:08:59;;;;;;;6.80;6.30;;;21.00;99.90;;;;;;6046499;23;20359;-82
2022/08/04 00:11:30;;;;;;;6.10;4.70;;;21.00;99.90;;;;;;6071256;23;20524;-80
2022/08/04 00:14:11;;;;;;;6.13;5.50;;;20.90;99.90;;;;;;6071612;23;20477;-80
2022/08/04 00:16:40;;;;;;;5.03;4.60;;;20.80;99.90;;;;;;6071626;23;20472;-83
2022/08/04 00:19:35;;;;;;;8.53;6.00;;;20.80;99.90;;;;;;6070743;23;20495;-80
2022/08/04 00:22:05;;;;;;;6.60;5.60;;;20.80;99.90;;;;;;6045861;23;20449;-82
2022/08/04 00:24:34;;;;;;;5.47;4.77;;;20.90;99.90;;;;;;6071789;23;20403;-81
2022/08/04 00:27:01;;;;;;;5.90;5.10;;;20.80;99.90;;;;;;6071051;23;20490;-80
2022/08/04 00:29:29;;;;;;;7.63;5.87;;;20.70;99.90;;;;;;6071588;23;20479;-80
2022/08/04 00:31:56;;;;;;;6.87;5.67;;;20.70;99.90;;;;;;6083145;23;20699;-81
2022/08/04 00:34:27;;;;;;;5.97;5.43;;;20.70;99.90;;;;;;6087466;23;20412;-82
2022/08/04 00:36:56;;;;;;;12.03;4.97;;;20.60;99.90;;;;;;6089622;23;20431;-80
2022/08/04 00:39:24;;;;;;;6.53;6.03;;;20.50;99.90;;;;;;6087597;23;20408;-81
2022/08/04 00:42:20;;;;;;;6.23;5.27;;;20.60;99.90;;;;;;6081449;23;20711;-81
2022/08/04 00:44:47;;;;;;;5.73;5.13;;;20.60;99.90;;;;;;6076054;23;20459;-84
2022/08/04 00:47:41;;;;;;;7.20;6.50;;;20.70;99.90;;;;;;6072708;23;20458;-80
2022/08/04 00:50:37;;;;;;;5.33;4.90;;;20.50;99.90;;;;;;6071874;23;20421;-81
2022/08/04 00:53:26;;;;;;;6.03;5.43;;;20.40;99.90;;;;;;6072581;23;20734;-81
2022/08/04 00:56:04;;;;;;;6.80;6.10;;;20.50;99.90;;;;;;6072722;23;20404;-81
2022/08/04 00:58:42;;;;;;;5.70;4.73;;;20.40;99.90;;;;;;6048153;23;20487;-82
2022/08/04 01:01:54;;;;;;;5.60;5.20;;;20.40;99.90;;;;;;6072915;23;20440;-81
2022/08/04 01:04:48;;;;;;;6.90;5.13;;;20.20;99.90;;;;;;6071675;23;20381;-81
2022/08/04 01:07:51;;;;;;;8.33;6.27;;;20.30;99.90;;;;;;6038871;23;20417;-80
2022/08/04 01:10:44;;;;;;;6.07;4.97;;;20.40;99.90;;;;;;6071230;23;20433;-80
2022/08/04 01:13:32;;;;;;;6.27;5.57;;;20.40;99.90;;;;;;6072400;23;20366;-81
2022/08/04 01:16:04;;;;;;;9.13;5.70;;;20.30;99.90;;;;;;6090251;23;20439;-80
2022/08/04 01:18:54;;;;;;;6.80;6.30;;;20.40;99.90;;;;;;6079028;23;20383;-81
2022/08/04 01:21:41;;;;;;;6.00;5.50;;;20.30;99.90;;;;;;6072136;23;20386;-81
2022/08/04 01:24:43;;;;;;;5.77;5.30;;;20.30;99.90;;;;;;6072496;23;20366;-81
2022/08/04 01:27:43;;;;;;;8.10;6.10;;;20.10;99.90;;;;;;6072448;23;20406;-80
2022/08/04 01:30:11;;;;;;;6.23;5.73;;;20.10;99.90;;;;;;6074699;23;20375;-83
2022/08/04 01:32:42;;;;;;;9.93;5.30;;;20.10;99.90;;;;;;6073463;23;20748;-82
2022/08/04 01:35:19;;;;;;;6.77;6.20;;;20.20;99.90;;;;;;6046296;23;20387;-81
2022/08/04 01:38:23;;;;;;;6.53;5.20;;;20.10;99.90;;;;;;6050090;23;20385;-81
2022/08/04 01:40:58;;;;;;;6.57;5.47;;;20.10;99.90;;;;;;6071741;23;20414;-81
2022/08/04 01:43:28;;;;;;;6.70;6.10;;;20.10;99.90;;;;;;6074054;23;20353;-79
2022/08/04 01:45:58;;;;;;;5.50;5.00;;;20.10;99.90;;;;;;6083739;23;20430;-81
2022/08/04 01:48:26;;;;;;;6.80;6.10;;;20.10;99.90;;;;;;6085624;23;20420;-83
2022/08/04 01:51:01;;;;;;;9.67;6.07;;;20.00;99.90;;;;;;6078460;23;20394;-83
2022/08/04 01:53:31;;;;;;;9.10;6.90;;;20.00;99.90;;;;;;6080148;23;20432;-82
2022/08/04 01:56:00;;;;;;;6.73;6.13;;;19.90;99.90;;;;;;6059580;23;20361;-80
2022/08/04 01:58:29;;;;;;;7.83;6.10;;;20.00;99.90;;;;;;6087519;23;20426;-80
2022/08/04 02:01:09;;;;;;;6.60;6.00;;;19.90;99.90;;;;;;6084748;23;20343;-82
2022/08/04 02:03:42;;;;;;;5.57;5.17;;;19.80;99.90;;;;;;6084556;23;20389;-81
2022/08/04 02:06:51;;;;;;;5.67;5.23;;;19.80;99.90;;;;;;6075150;23;20450;-82
2022/08/04 02:09:38;;;;;;;8.90;7.20;;;19.80;99.90;;;;;;6048509;23;20353;-81
2022/08/04 02:12:51;;;;;;;9.33;7.00;;;19.80;99.90;;;;;;6072588;23;20357;-82
2022/08/04 02:15:23;;;;;;;6.47;5.87;;;19.80;99.90;;;;;;6072142;23;20416;-81
2022/08/04 02:18:02;;;;;;;6.50;5.90;;;19.70;99.90;;;;;;6046633;23;20380;-81
2022/08/04 02:20:36;;;;;;;6.93;6.30;;;19.70;99.90;;;;;;6073324;23;20349;-81
2022/08/04 02:23:09;;;;;;;6.57;5.97;;;19.70;99.90;;;;;;6071786;23;20382;-80
2022/08/04 02:25:44;;;;;;;6.37;5.77;;;19.70;99.90;;;;;;6072396;23;20432;-81
2022/08/04 02:28:39;;;;;;;6.20;5.60;;;19.70;99.90;;;;;;6046914;23;20423;-83
2022/08/04 02:31:32;;;;;;;8.63;6.73;;;19.70;99.90;;;;;;6072032;23;20443;-80
2022/08/04 02:34:15;;;;;;;7.90;6.17;;;19.60;99.90;;;;;;6073248;23;20449;-81
2022/08/04 02:36:42;;;;;;;5.73;5.23;;;19.50;99.90;;;;;;6073381;23;20390;-81
2022/08/04 02:39:11;;;;;;;6.43;5.80;;;19.50;99.90;;;;;;6075182;23;20407;-83
2022/08/04 02:41:47;;;;;;;6.53;6.03;;;19.50;99.90;;;;;;6058219;23;20367;-82
2022/08/04 02:44:21;;;;;;;7.87;6.97;;;19.60;99.90;;;;;;6090801;23;20432;-81
2022/08/04 02:46:52;;;;;;;7.50;6.80;;;19.70;99.90;;;;;;6066109;23;20441;-78
2022/08/04 02:49:21;;;;;;;7.93;6.80;;;19.80;99.90;;;;;;6089274;23;20369;-80
2022/08/04 02:51:55;;;;;;;7.00;6.40;;;19.70;99.90;;;;;;6085757;23;20400;-84
2022/08/04 02:54:39;;;;;;;6.60;6.10;;;19.60;99.90;;;;;;6071096;23;20401;-81
2022/08/04 02:57:12;;;;;;;8.37;6.10;;;19.50;99.90;;;;;;6071229;23;20404;-80
2022/08/04 03:00:13;;;;;;;6.80;6.30;;;19.40;99.90;;;;;;6072475;23;20384;-80
2022/08/04 03:02:54;;;;;;;7.43;6.80;;;19.40;99.90;;;;;;6072882;23;20440;-81
2022/08/04 03:05:32;;;;;;;6.87;6.27;;;19.40;99.90;;;;;;6070927;23;20453;-82
2022/08/04 03:08:37;;;;;;;7.40;5.90;;;19.30;99.90;;;;;;6070742;23;20373;-81
2022/08/04 03:11:33;;;;;;;6.93;6.33;;;19.30;99.90;;;;;;6070266;23;20445;-81
2022/08/04 03:14:29;;;;;;;7.90;7.10;;;19.20;99.90;;;;;;6079859;23;20404;-81
2022/08/04 03:17:34;;;;;;;6.93;6.33;;;19.20;99.90;;;;;;6089490;23;20401;-81
2022/08/04 03:20:30;;;;;;;8.73;7.93;;;19.20;99.90;;;;;;6073355;23;20416;-81
2022/08/04 03:23:21;;;;;;;9.77;6.83;;;19.30;99.90;;;;;;6072981;23;20437;-81
2022/08/04 03:26:18;;;;;;;8.97;8.07;;;19.30;99.90;;;;;;6072099;23;20380;-80
2022/08/04 03:29:15;;;;;;;7.63;7.03;;;19.40;99.90;;;;;;6047373;23;20406;-81
2022/08/04 03:32:27;;;;;;;7.50;6.80;;;19.20;99.90;;;;;;6051314;23;20638;-80
2022/08/04 03:35:09;;;;;;;7.60;6.80;;;19.00;99.90;;;;;;6047418;23;20392;-82
2022/08/04 03:38:03;;;;;;;10.37;7.83;;;19.10;99.90;;;;;;6073450;23;20393;-81
2022/08/04 03:40:54;;;;;;;7.10;6.40;;;19.00;99.90;;;;;;6073436;23;20416;-81
2022/08/04 03:43:47;;;;;;;7.57;6.97;;;19.00;99.90;;;;;;6071958;23;20366;-82
2022/08/04 03:47:06;;;;;;;7.87;7.17;;;19.10;99.90;;;;;;6071412;23;20815;-79
2022/08/04 03:50:04;;;;;;;7.63;6.33;;;19.20;99.90;;;;;;5959105;24;20436;-80
2022/08/04 03:53:08;;;;;;;7.90;7.10;;;19.10;99.90;;;;;;5982347;24;20419;-81
2022/08/04 03:55:53;;;;;;;9.13;7.50;;;19.10;99.90;;;;;;6067862;23;20399;-81
2022/08/04 03:58:42;;;;;;;7.57;6.70;;;19.20;99.90;;;;;;6070125;23;20388;-81
2022/08/04 04:01:32;;;;;;;11.50;7.93;;;19.30;99.90;;;;;;6070680;23;20408;-80
2022/08/04 04:04:31;;;;;;;8.10;7.43;;;19.20;99.90;;;;;;6070219;23;20421;-83
2022/08/04 04:07:29;;;;;;;6.47;5.87;;;19.40;99.90;;;;;;6069343;23;20456;-84
2022/08/04 04:10:28;;;;;;;7.13;6.43;;;19.40;99.90;;;;;;6069449;23;20380;-82
2022/08/04 04:13:14;;;;;;;10.33;7.43;;;19.50;99.90;;;;;;6070413;23;20379;-81
2022/08/04 04:16:09;;;;;;;8.63;7.10;;;19.50;99.90;;;;;;6070307;23;20418;-82
2022/08/04 04:19:14;;;;;;;9.33;7.60;;;19.50;99.90;;;;;;6069301;23;20677;-84
2022/08/04 04:21:57;;;;;;;9.80;7.50;;;19.70;99.90;;;;;;6069541;23;20754;-80
2022/08/04 04:24:33;;;;;;;10.30;9.00;;;19.70;99.90;;;;;;6071119;23;20432;-79
2022/08/04 04:27:16;;;;;;;7.43;6.83;;;19.90;99.90;;;;;;6046671;23;20495;-82
2022/08/04 04:29:46;;;;;;;7.90;7.20;;;20.20;99.90;;;;;;6073672;23;20503;-81
2022/08/04 04:32:33;;;;;;;9.00;6.50;;;20.30;99.90;;;;;;6073147;23;20444;-80
2022/08/04 04:35:34;;;;;;;8.17;7.37;;;20.30;99.90;;;;;;6072566;23;20389;-80
2022/08/04 04:38:27;;;;;;;9.33;8.33;;;20.20;99.90;;;;;;6072769;23;20376;-80
2022/08/04 04:41:30;;;;;;;7.70;7.00;;;20.20;99.90;;;;;;6073561;23;20442;-83
2022/08/04 04:44:28;;;;;;;8.23;6.57;;;20.50;99.90;;;;;;6073702;23;20675;-81
2022/08/04 04:47:08;;;;;;;8.07;7.27;;;20.60;99.90;;;;;;6074340;23;20512;-81
2022/08/04 04:49:53;;;;;;;9.27;8.17;;;20.50;99.90;;;;;;6074746;23;20439;-80
2022/08/04 04:52:27;;;;;;;8.13;7.40;;;20.70;99.90;;;;;;6048713;23;20619;-82
2022/08/04 04:55:18;;;;;;;8.70;7.87;;;20.80;99.90;;;;;;6074438;23;20346;-81
2022/08/04 04:57:46;;;;;;;8.90;8.10;;;20.80;99.90;;;;;;6049877;23;20393;-80
2022/08/04 05:00:25;;;;;;;7.03;6.53;;;20.80;99.90;;;;;;6078787;23;20393;-80
2022/08/04 05:03:22;;;;;;;7.63;6.93;;;20.90;99.90;;;;;;6080585;23;20419;-80
2022/08/04 05:05:59;;;;;;;7.27;6.67;;;20.90;99.90;;;;;;6079409;23;20417;-80
2022/08/04 05:09:05;;;;;;;8.93;8.13;;;21.10;99.90;;;;;;6080252;23;20448;-80
2022/08/04 05:11:51;;;;;;;7.90;6.80;;;21.20;99.90;;;;;;6049739;23;20386;-79
2022/08/04 05:14:29;;;;;;;7.90;7.10;;;21.20;99.90;;;;;;6057166;23;20411;-83
2022/08/04 05:17:25;;;;;;;7.87;6.60;;;21.30;99.90;;;;;;6063387;23;20392;-81
2022/08/04 05:20:02;;;;;;;6.93;6.30;;;21.40;99.90;;;;;;6057949;23;20392;-82
2022/08/04 05:22:36;;;;;;;8.17;7.40;;;21.50;99.90;;;;;;6080485;23;20448;-80
2022/08/04 05:25:13;;;;;;;9.70;6.93;;;21.60;99.90;;;;;;6074296;23;20414;-82
2022/08/04 05:27:49;;;;;;;6.90;6.30;;;22.00;99.90;;;;;;6073779;23;20433;-82
2022/08/04 05:30:20;;;;;;;6.53;5.60;;;22.00;99.90;;;;;;6073731;23;20687;-85
2022/08/04 05:33:03;;;;;;;7.10;6.60;;;22.10;99.90;;;;;;6029726;23;20427;-80
2022/08/04 05:35:41;;;;;;;8.50;7.80;;;22.10;99.90;;;;;;6073993;23;20386;-83
2022/08/04 05:38:36;;;;;;;12.67;6.37;;;22.10;99.90;;;;;;6073130;23;20381;-81
2022/08/04 05:41:04;;;;;;;9.30;8.00;;;22.30;99.90;;;;;;6073570;23;20449;-80
2022/08/04 05:43:32;;;;;;;7.80;6.77;;;22.40;99.90;;;;;;6073423;23;21059;-82
2022/08/04 05:46:00;;;;;;;7.17;6.47;;;22.50;99.90;;;;;;6073257;23;20396;-82
2022/08/04 05:48:29;;;;;;;7.77;6.20;;;22.90;99.90;;;;;;6070071;23;20455;-80
2022/08/04 05:50:57;;;;;;;7.77;6.70;;;23.10;99.90;;;;;;6045852;23;20448;-80
2022/08/04 05:53:29;;;;;;;7.00;6.40;;;23.20;99.90;;;;;;6046872;23;20393;-81
2022/08/04 05:55:57;;;;;;;8.90;6.60;;;23.20;99.90;;;;;;6047646;23;20403;-81
2022/08/04 05:58:29;;;;;;;6.53;5.93;;;23.40;99.90;;;;;;6048971;23;20473;-83
2022/08/04 06:00:59;;;;;;;6.83;6.23;;;23.60;99.90;;;;;;6072536;23;20387;-79
2022/08/04 06:03:29;;;;;;;6.70;6.20;;;23.70;99.90;;;;;;6047582;23;20376;-81
2022/08/04 06:05:57;;;;;;;6.53;5.93;;;24.00;99.90;;;;;;6072303;23;20471;-80
2022/08/04 06:08:28;;;;;;;6.80;6.10;;;24.20;99.90;;;;;;6072112;23;20438;-83
2022/08/04 06:10:57;;;;;;;6.93;6.33;;;24.40;99.90;;;;;;6072598;23;20464;-81
2022/08/04 06:13:37;;;;;;;7.70;6.90;;;24.60;99.90;;;;;;6072383;23;20433;-81
2022/08/04 06:16:19;;;;;;;6.30;5.70;;;24.80;99.90;;;;;;6049402;23;20365;-80
2022/08/04 06:19:00;;;;;;;5.97;5.40;;;25.20;99.90;;;;;;6073051;23;20441;-83
2022/08/04 06:21:51;;;;;;;6.00;5.53;;;25.30;99.90;;;;;;6072087;23;20432;-83
2022/08/04 06:24:21;;;;;;;6.10;5.60;;;25.30;99.90;;;;;;6072489;23;20476;-81
2022/08/04 06:26:50;;;;;;;6.40;5.70;;;25.40;99.90;;;;;;6072193;23;20729;-80
2022/08/04 06:29:28;;;;;;;6.03;5.47;;;25.60;99.90;;;;;;6072994;23;20361;-80
2022/08/04 06:31:57;;;;;;;5.83;5.33;;;26.00;99.90;;;;;;6072165;23;20623;-84
2022/08/04 06:34:45;;;;;;;7.03;6.43;;;26.50;99.90;;;;;;6072784;23;20392;-82
2022/08/04 06:37:13;;;;;;;6.33;5.70;;;27.60;99.90;;;;;;6073001;23;20451;-80
2022/08/04 06:40:02;;;;;;;6.80;6.20;;;28.50;99.90;;;;;;6072773;23;20376;-80
2022/08/04 06:42:51;;;;;;;5.63;5.23;;;29.60;99.90;;;;;;6072998;23;20410;-81
2022/08/04 06:45:19;;;;;;;6.50;5.30;;;30.00;99.90;;;;;;6072930;23;20489;-82
2022/08/04 06:47:47;;;;;;;5.30;4.90;;;29.90;99.90;;;;;;6074565;23;20453;-78
2022/08/04 06:50:18;;;;;;;5.93;5.43;;;30.30;99.90;;;;;;6073840;23;20882;-81
2022/08/04 06:53:05;;;;;;;6.33;5.83;;;30.90;99.90;;;;;;6074101;23;20501;-81
2022/08/04 06:55:33;;;;;;;6.33;5.83;;;31.50;99.90;;;;;;6049217;23;20503;-81
2022/08/04 06:58:01;;;;;;;6.73;6.03;;;31.80;99.90;;;;;;6073669;23;20450;-83
2022/08/04 07:00:31;;;;;;;7.00;6.20;;;32.50;99.90;;;;;;6049317;23;20422;-83
2022/08/04 07:03:02;;;;;;;5.57;5.07;;;33.20;99.90;;;;;;6073111;23;20389;-81
2022/08/04 07:05:30;;;;;;;4.73;4.33;;;33.40;99.20;;;;;;6025331;23;20483;-82
2022/08/04 07:07:59;;;;;;;5.73;5.23;;;33.30;99.60;;;;;;6046757;23;20475;-81
2022/08/04 07:10:27;;;;;;;5.30;4.90;;;33.40;98.70;;;;;;6072555;23;20473;-82
2022/08/04 07:12:58;;;;;;;5.93;5.40;;;33.10;98.40;;;;;;6071380;23;20402;-81
2022/08/04 07:15:26;;;;;;;7.60;5.90;;;33.60;97.70;;;;;;6073778;23;20396;-81
2022/08/04 07:18:04;;;;;;;5.43;5.03;;;34.40;96.40;;;;;;6073254;23;20466;-82
2022/08/04 07:20:32;;;;;;;5.90;5.40;;;35.50;94.40;;;;;;6072119;23;20394;-82
2022/08/04 07:23:04;;;;;;;6.77;5.20;;;35.50;92.50;;;;;;6026469;23;20412;-83
2022/08/04 07:25:36;;;;;;;5.83;5.30;;;35.00;93.10;;;;;;6072435;23;20390;-81
2022/08/04 07:28:28;;;;;;;5.83;5.40;;;35.40;92.70;;;;;;6051260;23;20517;-80
2022/08/04 07:30:57;;;;;;;6.57;5.97;;;36.80;90.40;;;;;;6071204;23;20408;-82
2022/08/04 07:33:27;;;;;;;4.70;4.30;;;38.50;84.60;;;;;;6073079;23;20531;-83
2022/08/04 07:35:56;;;;;;;6.47;5.37;;;38.10;80.10;;;;;;6049463;23;20434;-81
2022/08/04 07:38:40;;;;;;;5.70;5.30;;;38.20;80.10;;;;;;6073344;23;20489;-81
2022/08/04 07:41:23;;;;;;;4.77;4.47;;;39.00;76.00;;;;;;6071144;23;20443;-82
2022/08/04 07:44:02;;;;;;;4.90;4.50;;;37.90;77.10;;;;;;6073659;23;20406;-82
2022/08/04 07:46:30;;;;;;;6.23;4.93;;;39.30;72.60;;;;;;6073570;23;20394;-83
2022/08/04 07:48:59;;;;;;;5.27;4.87;;;39.70;70.60;;;;;;6048649;23;20433;-86
2022/08/04 07:51:28;;;;;;;5.30;4.80;;;40.00;68.50;;;;;;6073767;23;20401;-81
2022/08/04 07:53:56;;;;;;;5.47;5.07;;;41.00;65.60;;;;;;6073316;23;20409;-80
2022/08/04 07:56:26;;;;;;;5.60;5.10;;;39.10;66.90;;;;;;6075529;23;20477;-79
2022/08/04 07:58:54;;;;;;;5.10;4.73;;;38.80;67.90;;;;;;6073165;23;20783;-83
2022/08/04 08:01:23;;;;;;;5.40;5.00;;;39.40;67.80;;;;;;6049758;23;20473;-83
2022/08/04 08:03:55;;;;;;;4.70;4.30;;;41.50;63.20;;;;;;6076806;23;20457;-83
2022/08/04 08:06:24;;;;;;;5.30;5.00;;;41.40;61.50;;;;;;6084405;23;20394;-82
2022/08/04 08:09:11;;;;;;;4.80;4.50;;;41.10;61.90;;;;;;6064988;23;20401;-83
2022/08/04 08:11:42;;;;;;;6.10;4.97;;;42.30;59.10;;;;;;6063737;23;20418;-81
2022/08/04 08:14:33;;;;;;;4.50;4.13;;;42.30;57.50;;;;;;6066631;23;20813;-83
2022/08/04 08:17:02;;;;;;;4.83;4.40;;;41.50;56.70;;;;;;6062298;23;20374;-82
2022/08/04 08:19:31;;;;;;;5.20;4.90;;;42.00;57.60;;;;;;6085392;23;20416;-81
2022/08/04 08:21:59;;;;;;;4.93;4.57;;;40.80;57.90;;;;;;6087919;23;20570;-82
2022/08/04 08:24:29;;;;;;;4.67;4.30;;;40.60;58.20;;;;;;6087185;23;20418;-83
2022/08/04 08:26:58;;;;;;;5.93;5.40;;;40.50;57.60;;;;;;6088365;23;20408;-82
2022/08/04 08:29:28;;;;;;;4.70;4.40;;;41.30;57.20;;;;;;6080192;23;20453;-84
2022/08/04 08:32:00;;;;;;;4.97;4.67;;;41.60;57.20;;;;;;6054676;23;20378;-85
2022/08/04 08:34:36;;;;;;;4.57;4.27;;;41.30;56.00;;;;;;6077197;23;20708;-81
2022/08/04 08:37:21;;;;;;;6.00;4.83;;;40.00;58.30;;;;;;6075486;23;20398;-83
2022/08/04 08:40:20;;;;;;;5.70;5.20;;;41.60;55.40;;;;;;6077038;23;20453;-81
2022/08/04 08:43:22;;;;;;;5.00;4.50;;;39.30;57.60;;;;;;6076585;23;20405;-81
2022/08/04 08:46:12;;;;;;;4.20;3.90;;;38.60;58.00;;;;;;6076159;23;20444;-83
2022/08/04 08:49:06;;;;;;;5.63;5.20;;;38.20;58.90;;;;;;6051336;23;20458;-80
2022/08/04 08:51:47;;;;;;;5.77;5.37;;;39.50;57.50;;;;;;6076958;23;20417;-85
2022/08/04 08:54:55;;;;;;;4.90;4.50;;;40.50;56.10;;;;;;6076784;23;20388;-81
2022/08/04 08:57:31;;;;;;;7.13;5.50;;;41.10;55.60;;;;;;6032066;23;20441;-81
2022/08/04 09:00:05;;;;;;;5.37;5.00;;;40.60;55.70;;;;;;6078029;23;20474;-82
2022/08/04 09:02:53;;;;;;;5.50;5.13;;;40.40;54.80;;;;;;6078918;23;20601;-83
2022/08/04 09:06:05;;;;;;;5.33;4.97;;;40.30;55.00;;;;;;6052500;23;20461;-83
2022/08/04 09:08:40;;;;;;;5.87;5.37;;;39.70;55.20;;;;;;6075148;23;20406;-81
2022/08/04 09:11:24;;;;;;;4.73;4.43;;;38.80;56.80;;;;;;6074366;23;20728;-84
2022/08/04 09:14:25;;;;;;;5.67;5.20;;;39.20;55.50;;;;;;6049958;23;20382;-83
2022/08/04 09:17:01;;;;;;;5.93;5.20;;;40.20;55.90;;;;;;6035979;23;20405;-84
2022/08/04 09:19:36;;;;;;;5.27;4.87;;;41.00;53.50;;;;;;6073272;23;20397;-81
2022/08/04 09:22:23;;;;;;;5.63;5.13;;;40.00;54.50;;;;;;6073941;23;20574;-83
2022/08/04 09:25:03;;;;;;;4.93;4.63;;;38.90;55.90;;;;;;6074870;23;20480;-85
2022/08/04 09:27:50;;;;;;;5.00;4.70;;;39.60;56.60;;;;;;6049584;23;20457;-81
2022/08/04 09:30:40;;;;;;;12.80;5.13;;;40.50;53.20;;;;;;6046510;23;20417;-83
2022/08/04 09:33:45;;;;;;;6.00;5.33;;;38.50;56.00;;;;;;6059029;23;20939;-81
2022/08/04 09:36:31;;;;;;;5.83;5.33;;;37.80;57.40;;;;;;6049125;23;20561;-81
2022/08/04 09:39:23;;;;;;;7.10;4.90;;;37.00;58.30;;;;;;6073706;23;20478;-81
2022/08/04 09:42:11;;;;;;;6.23;5.37;;;35.80;59.30;;;;;;6073858;23;20462;-80
2022/08/04 09:44:51;;;;;;;6.80;4.93;;;34.50;62.00;;;;;;6050374;23;20450;-82
2022/08/04 09:47:52;;;;;;;7.20;5.30;;;33.80;65.00;;;;;;6074129;23;20629;-80
2022/08/04 09:50:32;;;;;;;6.13;5.63;;;33.50;65.80;;;;;;6073194;23;20413;-82
2022/08/04 09:53:33;;;;;;;6.00;5.53;;;33.30;67.10;;;;;;6073948;23;20389;-84
2022/08/04 09:56:25;;;;;;;8.10;5.73;;;33.20;68.50;;;;;;6074200;23;20429;-81
2022/08/04 09:59:18;;;;;;;7.50;6.03;;;33.10;68.40;;;;;;6073351;23;20480;-82
2022/08/04 10:01:49;;;;;;;5.67;5.17;;;32.80;67.20;;;;;;6074782;23;20446;-83
2022/08/04 10:04:29;;;;;;;6.20;5.60;;;32.50;69.10;;;;;;6086251;23;20412;-80
2022/08/04 10:07:05;;;;;;;6.27;5.00;;;32.30;67.30;;;;;;6086761;23;20397;-81
2022/08/04 10:09:56;;;;;;;6.07;5.57;;;32.20;68.20;;;;;;6054835;23;20397;-83
2022/08/04 10:12:42;;;;;;;6.20;5.13;;;32.00;69.20;;;;;;6052389;23;20406;-82
2022/08/04 10:15:35;;;;;;;6.30;5.70;;;32.00;69.30;;;;;;6076924;23;20418;-83
2022/08/04 10:18:23;;;;;;;5.90;5.40;;;32.00;69.00;;;;;;6075487;23;20524;-81
2022/08/04 10:21:01;;;;;;;6.40;5.90;;;32.10;70.40;;;;;;6073993;23;20745;-82
2022/08/04 10:24:02;;;;;;;5.53;5.00;;;32.10;69.80;;;;;;6051918;23;20382;-81
2022/08/04 10:26:54;;;;;;;5.97;5.37;;;32.00;69.50;;;;;;6073896;23;20760;-80
2022/08/04 10:29:30;;;;;;;4.73;4.43;;;32.00;69.40;;;;;;6073425;23;20421;-83
2022/08/04 10:32:07;;;;;;;5.13;4.73;;;32.00;69.70;;;;;;6073699;23;20933;-82
2022/08/04 10:34:43;;;;;;;6.07;5.30;;;32.10;68.70;;;;;;6074420;23;20680;-84
2022/08/04 10:37:26;;;;;;;5.17;4.83;;;32.00;69.80;;;;;;6073321;23;20389;-82
2022/08/04 10:40:39;;;;;;;5.63;5.20;;;32.00;70.20;;;;;;6074042;23;20480;-82
2022/08/04 10:43:34;;;;;;;4.00;3.70;;;32.40;70.20;;;;;;6073800;23;20436;-81
2022/08/04 10:46:17;;;;;;;5.17;4.20;;;32.40;69.60;;;;;;6071482;23;20415;-82
2022/08/04 10:48:55;;;;;;;4.57;4.27;;;32.30;67.90;;;;;;6074347;23;20438;-82
2022/08/04 10:51:37;;;;;;;5.00;4.50;;;32.10;67.80;;;;;;6074772;23;20419;-82
2022/08/04 10:54:49;;;;;;;5.30;4.80;;;31.90;68.30;;;;;;6075249;23;20472;-82
2022/08/04 10:57:32;;;;;;;5.73;4.80;;;31.90;69.10;;;;;;6075025;23;20704;-81
2022/08/04 11:00:05;;;;;;;4.97;4.50;;;31.80;69.10;;;;;;6074084;23;20481;-83
2022/08/04 11:02:51;;;;;;;5.23;4.73;;;31.80;69.90;;;;;;6074031;23;20468;-80
2022/08/04 11:05:33;;;;;;;4.87;4.47;;;31.50;69.80;;;;;;6049795;23;20799;-79
2022/08/04 11:08:26;;;;;;;4.20;3.90;;;31.40;71.60;;;;;;6074637;23;20454;-83
2022/08/04 11:11:18;;;;;;;4.93;4.53;;;31.50;69.20;;;;;;6079995;23;20377;-86
2022/08/04 11:13:45;;;;;;;4.17;3.87;;;31.50;70.80;;;;;;6053514;23;20436;-84
2022/08/04 11:16:26;;;;;;;6.83;4.60;;;31.50;70.40;;;;;;6086403;23;20401;-80
2022/08/04 11:19:09;;;;;;;4.00;3.67;;;31.30;70.60;;;;;;6059853;23;20497;-80
2022/08/04 11:21:47;;;;;;;3.90;3.60;;;31.50;71.80;;;;;;6088224;23;20437;-82
2022/08/04 11:24:44;;;;;;;4.50;4.20;;;31.70;71.30;;;;;;6087038;23;20386;-80
2022/08/04 11:27:15;;;;;;;4.47;4.10;;;31.80;70.20;;;;;;6059125;23;20468;-83
2022/08/04 11:30:03;;;;;;;5.13;4.63;;;31.80;70.90;;;;;;6085471;23;20417;-79
2022/08/04 11:33:10;;;;;;;4.47;4.17;;;31.80;69.40;;;;;;6084625;23;20475;-84
2022/08/04 11:35:59;;;;;;;4.67;4.30;;;32.00;71.00;;;;;;6081503;23;20787;-79
2022/08/04 11:38:48;;;;;;;5.90;5.40;;;32.20;71.10;;;;;;6080541;23;20429;-80
2022/08/04 11:41:21;;;;;;;5.23;4.77;;;32.20;71.30;;;;;;6056511;23;20370;-78
2022/08/04 11:43:57;;;;;;;4.20;3.90;;;32.20;70.40;;;;;;6076066;23;20393;-81
2022/08/04 11:46:46;;;;;;;5.10;4.70;;;32.10;70.50;;;;;;6048736;23;20401;-81
2022/08/04 11:49:43;;;;;;;5.60;4.80;;;32.20;70.00;;;;;;6047576;23;20980;-84
2022/08/04 11:52:26;;;;;;;5.37;4.97;;;32.00;70.20;;;;;;6073406;23;20454;-85
2022/08/04 11:54:55;;;;;;;4.67;4.17;;;32.00;71.30;;;;;;6073325;23;20406;-85
2022/08/04 11:57:24;;;;;;;4.80;4.33;;;32.20;69.70;;;;;;6072621;23;20421;-84
2022/08/04 12:00:11;;;;;;;5.40;5.00;;;32.20;70.00;;;;;;6073234;23;20500;-80
2022/08/04 12:03:08;;;;;;;4.40;4.10;;;32.10;69.80;;;;;;6073887;23;20405;-84
2022/08/04 12:05:45;;;;;;;5.30;4.80;;;32.20;69.80;;;;;;6073211;23;20370;-82
2022/08/04 12:08:27;;;;;;;4.13;3.83;;;32.00;70.10;;;;;;6074157;23;20445;-84
2022/08/04 12:11:23;;;;;;;4.17;3.90;;;32.00;69.20;;;;;;6072921;23;20461;-81
2022/08/04 12:14:38;;;;;;;9.63;5.40;;;32.10;70.00;;;;;;6071681;23;20379;-78
2022/08/04 12:17:07;;;;;;;4.87;4.20;;;32.20;68.80;;;;;;6039125;23;20410;-81
2022/08/04 12:19:54;;;;;;;4.90;4.60;;;32.10;69.20;;;;;;6047114;23;20469;-82
2022/08/04 12:22:42;;;;;;;4.77;4.40;;;32.20;70.90;;;;;;6071785;23;20633;-81
2022/08/04 12:25:18;;;;;;;5.10;4.60;;;32.20;69.10;;;;;;6072917;23;20389;-81
2022/08/04 12:27:49;;;;;;;4.67;4.33;;;32.20;68.40;;;;;;6046283;23;20382;-82
2022/08/04 12:30:18;;;;;;;6.10;4.97;;;32.20;68.90;;;;;;6047299;23;20478;-82
2022/08/04 12:33:23;;;;;;;4.63;4.23;;;32.20;69.50;;;;;;6071885;23;20790;-82
2022/08/04 12:36:32;;;;;;;4.30;4.00;;;32.20;70.10;;;;;;6076244;23;20650;-83
2022/08/04 12:39:19;;;;;;;4.03;3.80;;;32.30;69.70;;;;;;6047499;23;20460;-82
2022/08/04 12:42:20;;;;;;;5.93;4.40;;;32.00;70.30;;;;;;6047961;23;20433;-81
2022/08/04 12:44:53;;;;;;;5.60;5.10;;;32.20;70.70;;;;;;6074995;23;20400;-80
2022/08/04 12:47:25;;;;;;;5.60;4.67;;;32.30;69.40;;;;;;6073829;23;20481;-82
2022/08/04 12:49:59;;;;;;;4.77;4.37;;;32.30;69.80;;;;;;6075106;23;20456;-82
2022/08/04 12:52:39;;;;;;;6.03;5.47;;;32.40;70.30;;;;;;6074812;23;20382;-80
2022/08/04 12:55:29;;;;;;;4.73;4.33;;;32.30;69.60;;;;;;6075569;23;20409;-84
2022/08/04 12:57:57;;;;;;;7.00;4.87;;;31.90;71.20;;;;;;6048087;23;20585;-80
2022/08/04 13:00:27;;;;;;;4.87;4.47;;;31.90;70.10;;;;;;6081389;23;20382;-85
2022/08/04 13:03:06;;;;;;;5.40;5.00;;;32.10;71.20;;;;;;6087554;23;20411;-82
2022/08/04 13:05:38;;;;;;;5.20;4.70;;;32.30;70.30;;;;;;6087800;23;20390;-79
2022/08/04 13:08:06;;;;;;;6.53;4.07;;;32.20;69.20;;;;;;6093883;23;20421;-81
2022/08/04 13:10:41;;;;;;;5.10;4.70;;;32.20;68.20;;;;;;6069258;23;20394;-81
2022/08/04 13:13:15;;;;;;;4.40;4.10;;;32.10;68.80;;;;;;6068010;23;20390;-83
2022/08/04 13:15:54;;;;;;;4.63;4.33;;;31.90;68.40;;;;;;6090211;23;20410;-81
2022/08/04 13:18:25;;;;;;;6.80;6.30;;;32.00;68.10;;;;;;6081819;23;20437;-79
2022/08/04 13:21:11;;;;;;;6.87;6.37;;;32.10;67.10;;;;;;6076552;23;20385;-83
2022/08/04 13:24:02;;;;;;;;;;;;;;;;;;;;;
2022/08/04 13:27:04;;;;;;;6.00;5.40;;;32.10;67.10;;;;;;6075275;23;20392;-80
2022/08/04 13:29:55;;;;;;;4.10;3.80;;;32.10;68.10;;;;;;6075495;23;20845;-79
2022/08/04 13:32:34;;;;;;;4.60;4.30;;;32.10;67.90;;;;;;6074543;23;20398;-84
2022/08/04 13:35:10;;;;;;;4.60;4.23;;;32.20;68.20;;;;;;6050404;23;20375;-82
2022/08/04 13:37:39;;;;;;;4.30;4.00;;;32.20;66.70;;;;;;6079662;23;20448;-82
2022/08/04 13:40:15;;;;;;;4.63;4.23;;;32.20;66.70;;;;;;6079160;23;20515;-84
2022/08/04 13:42:50;;;;;;;6.33;4.07;;;32.20;67.40;;;;;;6079558;23;20751;-81
2022/08/04 13:45:22;;;;;;;4.90;4.50;;;32.20;65.80;;;;;;6074170;23;20442;-82
2022/08/04 13:48:02;;;;;;;4.50;4.20;;;32.20;66.90;;;;;;6073472;23;20399;-83
2022/08/04 13:50:49;;;;;;;4.80;4.40;;;32.00;65.80;;;;;;6074000;23;20428;-82
2022/08/04 13:53:17;;;;;;;3.73;3.43;;;31.90;66.60;;;;;;6076326;23;20422;-82
2022/08/04 13:55:48;;;;;;;5.20;4.70;;;31.90;66.50;;;;;;6076363;23;20382;-81
2022/08/04 13:58:30;;;;;;;4.50;4.10;;;31.70;66.60;;;;;;6074327;23;20484;-82
2022/08/04 14:01:08;;;;;;;5.20;4.50;;;31.80;67.20;;;;;;6075882;23;20425;-81
2022/08/04 14:03:53;;;;;;;5.00;4.50;;;31.80;68.10;;;;;;6048927;23;20384;-82